KJAC/JAC METAR and TAF weather

Enter ICAO airport designator
Station Type Date Time Source
KJAC METAR 2021/07/28 18:56 UTC NOAA

KJAC 281856Z 30011KT 10SM -TSRA FU CLR 23/12 A3030 RMK AO2 WSHFT 1835 LTG DSNT N AND SW TSB1757RAB53 SLP188 P0000 T02330117


Station Type Date Time Source
KJAC Decoded METAR 2021/07/28 18:56 UTC NOAA

Jackson, Jackson Hole Airport, WY, United States (KJAC) 43-36N 110-44W
Jul 28, 2021 - 02:56 PM EDT / 2021.07.28 1856 UTC
Wind: from the WNW (300 degrees) at 13 MPH (11 KT):0
Visibility: 10 mile(s):0
Sky conditions: clear
Weather: light rain with thunder; smoke; Lightning observed
Precipitation last hour: A trace
Temperature: 73.9 F (23.3 C)
Dew Point: 53.1 F (11.7 C)
Relative Humidity: 48%
Pressure (altimeter): 30.3 in. Hg (1026 hPa)
ob: KJAC 281856Z 30011KT 10SM -TSRA FU CLR 23/12 A3030 RMK AO2 WSHFT 1835 LTG DSNT N AND SW TSB1757RAB53 SLP188 P0000 T02330117
cycle: 19

Station Type Date Time Source
KJAC TAF 2021/07/28 18:36 UTC NOAA

TAF KJAC 281734Z 2818/2918 36005KT P6SM VCTS BKN080CB
FM282000 29010G20KT P6SM VCTS BKN080CB
FM290300 35006KT P6SM VCSH BKN100
FM290900 VRB05KT P6SM SCT120

Example: see airport list